Time;durP1;ratioP1;P1;durP2;ratioP2;P2;SDS_P1;SDS_P2;PMS_P1;PMS_P2;Temp;Humidity;BMP_temperature;BMP_pressure;BME280_temperature;BME280_humidity;BME280_pressure;Samples;Min_cycle;Max_cycle;Signal;HPM_P1;HPM_P2
2023/07/23 00:00:17;;;;;;;;;;;23.10;99.90;;;;;;5095240;28;20431;-63
2023/07/23 00:02:43;;;;;;;;;;;23.10;99.90;;;;;;5095575;28;19985;-63
2023/07/23 00:05:08;;;;;;;;;;;23.00;99.90;;;;;;5095459;28;19985;-61
2023/07/23 00:07:34;;;;;;;;;;;23.00;99.90;;;;;;5095344;28;20450;-62
2023/07/23 00:09:59;;;;;;;;;;;23.10;99.90;;;;;;5095099;28;20005;-64
2023/07/23 00:12:25;;;;;;;;;;;23.10;99.90;;;;;;5095129;28;19985;-62
2023/07/23 00:14:51;;;;;;;;;;;23.10;99.90;;;;;;5094961;28;19981;-62
2023/07/23 00:17:16;;;;;;;;;;;23.20;99.90;;;;;;5095390;28;20443;-61
2023/07/23 00:19:42;;;;;;;;;;;23.20;99.90;;;;;;5094932;28;20076;-63
2023/07/23 00:22:07;;;;;;;;;;;23.20;99.90;;;;;;5095091;28;19988;-63
2023/07/23 00:24:33;;;;;;;;;;;23.20;99.90;;;;;;5095084;28;20034;-63
2023/07/23 00:26:58;;;;;;;;;;;23.20;99.90;;;;;;5094794;28;20075;-64
2023/07/23 00:29:24;;;;;;;;;;;23.20;99.90;;;;;;5094584;28;19985;-63
2023/07/23 00:31:49;;;;;;;;;;;23.20;99.90;;;;;;5094884;28;20079;-63
2023/07/23 00:34:15;;;;;;;;;;;23.30;99.90;;;;;;5094696;28;20008;-63
2023/07/23 00:36:40;;;;;;;;;;;23.30;99.90;;;;;;5095013;28;19984;-63
2023/07/23 00:39:06;;;;;;;;;;;23.20;99.90;;;;;;5094680;28;20083;-63
2023/07/23 00:41:32;;;;;;;;;;;23.20;99.90;;;;;;5094697;28;19981;-64
2023/07/23 00:43:57;;;;;;;;;;;23.10;99.90;;;;;;5094380;28;20047;-62
2023/07/23 00:46:23;;;;;;;;;;;23.10;99.90;;;;;;5094276;28;20021;-62
2023/07/23 00:48:49;;;;;;;;;;;22.90;99.90;;;;;;5094567;28;19985;-64
2023/07/23 00:51:15;;;;;;;;;;;22.90;99.90;;;;;;5093947;28;20517;-63
2023/07/23 00:53:41;;;;;;;;;;;22.90;99.90;;;;;;5094436;28;19989;-62
2023/07/23 00:56:07;;;;;;;;;;;23.00;99.90;;;;;;5094456;28;20447;-62
2023/07/23 00:58:32;;;;;;;;;;;22.90;99.90;;;;;;5094019;28;20001;-62
2023/07/23 01:00:58;;;;;;;;;;;22.90;99.90;;;;;;5094243;28;20030;-62
2023/07/23 01:03:24;;;;;;;;;;;22.90;99.90;;;;;;5094207;28;19991;-62
2023/07/23 01:05:50;;;;;;;;;;;23.00;99.90;;;;;;5094133;28;19988;-64
2023/07/23 01:08:15;;;;;;;;;;;23.00;99.90;;;;;;5094178;28;19981;-63
2023/07/23 01:10:41;;;;;;;;;;;23.10;99.90;;;;;;5094144;28;20053;-62
2023/07/23 01:13:07;;;;;;;;;;;23.10;99.90;;;;;;5093916;28;19985;-63
2023/07/23 01:15:33;;;;;;;;;;;23.00;99.90;;;;;;5093977;28;19981;-63
2023/07/23 01:17:59;;;;;;;;;;;23.00;99.90;;;;;;5094058;28;19981;-64
2023/07/23 01:20:25;;;;;;;;;;;23.00;99.90;;;;;;5094084;28;19988;-64
2023/07/23 01:22:51;;;;;;;;;;;23.00;99.90;;;;;;5093874;28;19981;-62
2023/07/23 01:25:16;;;;;;;;;;;22.90;99.90;;;;;;5094035;28;20034;-62
2023/07/23 01:27:42;;;;;;;;;;;22.80;99.90;;;;;;5093746;28;19988;-63
2023/07/23 01:30:10;;;;;;;;;;;22.80;99.90;;;;;;5093780;28;20054;-63
2023/07/23 01:32:36;;;;;;;;;;;22.70;99.90;;;;;;5093989;28;20034;-64
2023/07/23 01:35:05;;;;;;;;;;;22.80;99.90;;;;;;5093851;28;20023;-63
2023/07/23 01:37:31;;;;;;;;;;;22.90;99.90;;;;;;5093742;28;20428;-62
2023/07/23 01:39:56;;;;;;;;;;;22.90;99.90;;;;;;5093910;28;19985;-63
2023/07/23 01:42:22;;;;;;;;;;;22.90;99.90;;;;;;5093601;28;20031;-62
2023/07/23 01:44:48;;;;;;;;;;;22.90;99.90;;;;;;5093469;28;20013;-62
2023/07/23 01:47:13;;;;;;;;;;;22.90;99.90;;;;;;5093848;28;20086;-61
2023/07/23 01:49:39;;;;;;;;;;;22.90;99.90;;;;;;5093701;28;20005;-63
2023/07/23 01:52:04;;;;;;;;;;;22.80;99.90;;;;;;5093692;28;20025;-62
2023/07/23 01:54:30;;;;;;;;;;;22.80;99.90;;;;;;5093578;28;19994;-64
2023/07/23 01:56:56;;;;;;;;;;;22.80;99.90;;;;;;5093401;28;20060;-62
2023/07/23 01:59:22;;;;;;;;;;;22.60;99.90;;;;;;5093655;28;20064;-61
2023/07/23 02:01:47;;;;;;;;;;;22.60;99.90;;;;;;5094330;28;20003;-63
2023/07/23 02:04:13;;;;;;;;;;;22.70;99.90;;;;;;5097688;28;19981;-61
2023/07/23 02:06:38;;;;;;;;;;;22.70;99.90;;;;;;5097680;28;19985;-63
2023/07/23 02:09:04;;;;;;;;;;;22.80;99.90;;;;;;5097311;28;19981;-62
2023/07/23 02:11:29;;;;;;;;;;;22.80;99.90;;;;;;5097741;28;20009;-64
2023/07/23 02:13:55;;;;;;;;;;;22.80;99.90;;;;;;5097574;28;19984;-63
2023/07/23 02:16:21;;;;;;;;;;;22.90;99.90;;;;;;5097424;28;19981;-61
2023/07/23 02:18:48;;;;;;;;;;;22.90;99.90;;;;;;5097431;28;19989;-64
2023/07/23 02:21:13;;;;;;;;;;;22.80;99.90;;;;;;5097490;28;19981;-63
2023/07/23 02:23:39;;;;;;;;;;;22.70;99.90;;;;;;5097076;28;20076;-63
2023/07/23 02:26:04;;;;;;;;;;;22.80;99.90;;;;;;5097539;28;19989;-62
2023/07/23 02:28:30;;;;;;;;;;;22.70;99.90;;;;;;5097367;28;19985;-62
2023/07/23 02:30:56;;;;;;;;;;;22.70;99.90;;;;;;5097179;28;20009;-62
2023/07/23 02:33:22;;;;;;;;;;;22.70;99.90;;;;;;5097019;28;19992;-64
2023/07/23 02:35:48;;;;;;;;;;;22.80;99.90;;;;;;5097200;28;19981;-64
2023/07/23 02:38:13;;;;;;;;;;;22.80;99.90;;;;;;5096940;28;19988;-62
2023/07/23 02:40:39;;;;;;;;;;;22.80;99.90;;;;;;5096858;28;19987;-62
2023/07/23 02:43:05;;;;;;;;;;;22.80;99.90;;;;;;5096986;28;20040;-62
2023/07/23 02:45:30;;;;;;;;;;;22.90;99.90;;;;;;5096699;28;20024;-62
2023/07/23 02:47:56;;;;;;;;;;;22.90;99.90;;;;;;5096812;28;19985;-62
2023/07/23 02:50:22;;;;;;;;;;;22.90;99.90;;;;;;5096853;28;20005;-61
2023/07/23 02:52:47;;;;;;;;;;;22.90;99.90;;;;;;5096864;28;19985;-62
2023/07/23 02:55:13;;;;;;;;;;;22.90;99.90;;;;;;5096709;28;20451;-61
2023/07/23 02:57:39;;;;;;;;;;;23.00;99.90;;;;;;5096798;28;20011;-62
2023/07/23 03:00:04;;;;;;;;;;;23.00;99.90;;;;;;5097026;28;19985;-62
2023/07/23 03:02:30;;;;;;;;;;;22.90;99.90;;;;;;5096560;28;20030;-62
2023/07/23 03:04:55;;;;;;;;;;;23.00;99.90;;;;;;5096412;28;19995;-64
2023/07/23 03:07:21;;;;;;;;;;;22.90;99.90;;;;;;5096506;28;19988;-62
2023/07/23 03:09:47;;;;;;;;;;;22.90;99.90;;;;;;5096367;28;20012;-63
2023/07/23 03:12:12;;;;;;;;;;;23.00;99.90;;;;;;5096124;28;19981;-63
2023/07/23 03:14:38;;;;;;;;;;;23.00;99.90;;;;;;5096329;28;19986;-64
2023/07/23 03:17:03;;;;;;;;;;;22.90;99.90;;;;;;5096256;28;20129;-64
2023/07/23 03:19:29;;;;;;;;;;;22.90;99.90;;;;;;5096167;28;19989;-61
2023/07/23 03:21:54;;;;;;;;;;;22.90;99.90;;;;;;5096247;28;19985;-62
2023/07/23 03:24:20;;;;;;;;;;;23.00;99.90;;;;;;5095935;28;20502;-63
2023/07/23 03:26:45;;;;;;;;;;;23.00;99.90;;;;;;5096147;28;20452;-63
2023/07/23 03:29:11;;;;;;;;;;;23.00;99.90;;;;;;5096026;28;19988;-62
2023/07/23 03:31:36;;;;;;;;;;;23.00;99.90;;;;;;5095866;28;20065;-64
2023/07/23 03:34:02;;;;;;;;;;;23.00;99.90;;;;;;5096045;28;20026;-64
2023/07/23 03:36:28;;;;;;;;;;;23.00;99.90;;;;;;5095773;28;19991;-62
2023/07/23 03:38:53;;;;;;;;;;;23.10;99.90;;;;;;5095680;28;20019;-63
2023/07/23 03:41:19;;;;;;;;;;;23.00;99.90;;;;;;5095885;28;19988;-64
2023/07/23 03:43:44;;;;;;;;;;;23.10;99.90;;;;;;5095677;28;20034;-62
2023/07/23 03:46:10;;;;;;;;;;;23.10;99.90;;;;;;5095582;28;20017;-63
2023/07/23 03:48:35;;;;;;;;;;;23.10;99.90;;;;;;5095715;28;19981;-63
2023/07/23 03:51:01;;;;;;;;;;;23.10;99.90;;;;;;5095514;28;20005;-62
2023/07/23 03:53:26;;;;;;;;;;;23.10;99.90;;;;;;5095375;28;20066;-62
2023/07/23 03:55:52;;;;;;;;;;;23.20;99.90;;;;;;5095800;28;19992;-64
2023/07/23 03:58:17;;;;;;;;;;;23.20;99.90;;;;;;5095395;28;20469;-62
2023/07/23 04:00:43;;;;;;;;;;;23.20;99.90;;;;;;5095365;28;19988;-64
2023/07/23 04:03:09;;;;;;;;;;;23.20;99.90;;;;;;5095406;28;19988;-63
2023/07/23 04:05:34;;;;;;;;;;;23.20;99.90;;;;;;5095161;28;19990;-62
2023/07/23 04:08:00;;;;;;;;;;;23.20;99.90;;;;;;5095193;28;20428;-62
2023/07/23 04:10:26;;;;;;;;;;;23.20;99.90;;;;;;5095204;28;20469;-62
2023/07/23 04:12:51;;;;;;;;;;;23.20;99.90;;;;;;5095267;28;19981;-63
2023/07/23 04:15:17;;;;;;;;;;;23.20;99.90;;;;;;5095167;28;19992;-62
2023/07/23 04:17:42;;;;;;;;;;;23.10;99.90;;;;;;5095450;28;20011;-62
2023/07/23 04:20:08;;;;;;;;;;;23.10;99.90;;;;;;5094929;28;20328;-62
2023/07/23 04:22:34;;;;;;;;;;;23.10;99.90;;;;;;5095008;28;20019;-62
2023/07/23 04:24:59;;;;;;;;;;;23.20;99.90;;;;;;5094220;28;20069;-62
2023/07/23 04:27:25;;;;;;;;;;;23.20;99.90;;;;;;5094976;28;19988;-64
2023/07/23 04:29:51;;;;;;;;;;;23.20;99.90;;;;;;5094804;28;20125;-64
2023/07/23 04:32:17;;;;;;;;;;;23.10;99.90;;;;;;5094815;28;20033;-63
2023/07/23 04:34:42;;;;;;;;;;;23.00;99.90;;;;;;5094947;28;20031;-62
2023/07/23 04:37:09;;;;;;;;;;;23.00;99.90;;;;;;5094593;28;19981;-62
2023/07/23 04:39:34;;;;;;;;;;;22.90;99.90;;;;;;5094615;28;19983;-65
2023/07/23 04:42:00;;;;;;;;;;;22.90;99.90;;;;;;5094981;28;20455;-61
2023/07/23 04:44:25;;;;;;;;;;;22.80;99.90;;;;;;5094604;28;19981;-63
2023/07/23 04:46:51;;;;;;;;;;;22.80;99.90;;;;;;5094374;28;20064;-61
2023/07/23 04:49:16;;;;;;;;;;;22.90;99.90;;;;;;5094388;28;19992;-61
2023/07/23 04:51:42;;;;;;;;;;;23.00;99.90;;;;;;5094515;28;20005;-64
2023/07/23 04:54:07;;;;;;;;;;;22.90;99.90;;;;;;5094477;28;19987;-64
2023/07/23 04:56:33;;;;;;;;;;;22.90;99.90;;;;;;5094356;28;20073;-62
2023/07/23 04:58:58;;;;;;;;;;;23.00;99.90;;;;;;5094400;28;20042;-63
2023/07/23 05:01:24;;;;;;;;;;;23.10;99.90;;;;;;5094281;28;19981;-64
2023/07/23 05:03:50;;;;;;;;;;;23.10;99.90;;;;;;5094047;28;19988;-64
2023/07/23 05:06:15;;;;;;;;;;;23.10;99.90;;;;;;5094371;28;19981;-64
2023/07/23 05:08:41;;;;;;;;;;;23.10;99.90;;;;;;5094247;28;20024;-63
2023/07/23 05:11:06;;;;;;;;;;;23.10;99.90;;;;;;5094016;28;20009;-64
2023/07/23 05:13:33;;;;;;;;;;;23.20;99.90;;;;;;5094263;28;19982;-64
2023/07/23 05:15:59;;;;;;;;;;;23.30;99.90;;;;;;5094165;28;19981;-63
2023/07/23 05:18:25;;;;;;;;;;;23.40;99.90;;;;;;5093819;28;20392;-64
2023/07/23 05:20:50;;;;;;;;;;;23.40;99.90;;;;;;5093987;28;19981;-62
2023/07/23 05:23:16;;;;;;;;;;;23.30;99.90;;;;;;5094080;28;19985;-63
2023/07/23 05:25:42;;;;;;;;;;;23.30;99.90;;;;;;5093946;28;19995;-64
2023/07/23 05:28:08;;;;;;;;;;;23.20;99.90;;;;;;5093849;28;19981;-64
2023/07/23 05:30:34;;;;;;;;;;;23.30;99.90;;;;;;5093911;28;20011;-63
2023/07/23 05:32:59;;;;;;;;;;;23.40;99.90;;;;;;5093732;28;19981;-63
2023/07/23 05:35:25;;;;;;;;;;;23.50;99.90;;;;;;5094004;28;19985;-64
2023/07/23 05:37:50;;;;;;;;;;;23.50;99.90;;;;;;5093831;28;19980;-64
2023/07/23 05:40:16;;;;;;;;;;;23.50;99.90;;;;;;5093923;28;20044;-61
2023/07/23 05:42:41;;;;;;;;;;;23.40;99.90;;;;;;5093769;28;19988;-62
2023/07/23 05:45:07;;;;;;;;;;;23.50;99.90;;;;;;5093612;28;20434;-62
2023/07/23 05:47:33;;;;;;;;;;;23.50;99.90;;;;;;5093645;28;20027;-64
2023/07/23 05:49:58;;;;;;;;;;;23.40;99.90;;;;;;5093496;28;20005;-62
2023/07/23 05:52:24;;;;;;;;;;;23.40;99.90;;;;;;5093828;28;19989;-63
2023/07/23 05:54:49;;;;;;;;;;;23.50;99.90;;;;;;5093903;28;20335;-61
2023/07/23 05:57:15;;;;;;;;;;;23.60;99.90;;;;;;5093565;28;20395;-62
2023/07/23 05:59:40;;;;;;;;;;;23.70;99.90;;;;;;5093520;28;20324;-63
2023/07/23 06:02:06;;;;;;;;;;;23.70;99.90;;;;;;5093466;28;20020;-64
2023/07/23 06:04:32;;;;;;;;;;;23.70;99.90;;;;;;5093645;28;19981;-63
2023/07/23 06:06:57;;;;;;;;;;;23.80;99.90;;;;;;5093534;28;19981;-62
2023/07/23 06:09:23;;;;;;;;;;;23.80;99.90;;;;;;5093440;28;20443;-64
2023/07/23 06:11:48;;;;;;;;;;;23.80;99.90;;;;;;5093560;28;20443;-64
2023/07/23 06:14:14;;;;;;;;;;;23.70;99.90;;;;;;5093726;28;20023;-63
2023/07/23 06:16:39;;;;;;;;;;;23.70;99.90;;;;;;5093338;28;19981;-63
2023/07/23 06:19:05;;;;;;;;;;;23.80;99.90;;;;;;5093482;28;20491;-64
2023/07/23 06:21:31;;;;;;;;;;;23.90;99.90;;;;;;5093404;28;19981;-63
2023/07/23 06:23:56;;;;;;;;;;;24.00;99.90;;;;;;5093436;28;20439;-62
2023/07/23 06:26:22;;;;;;;;;;;24.00;99.90;;;;;;5093425;28;20381;-63
2023/07/23 06:28:47;;;;;;;;;;;24.10;99.90;;;;;;5093627;28;20384;-64
2023/07/23 06:31:13;;;;;;;;;;;24.10;99.90;;;;;;5092986;28;20005;-64
2023/07/23 06:33:39;;;;;;;;;;;24.10;99.90;;;;;;5093415;28;19981;-63
2023/07/23 06:36:04;;;;;;;;;;;24.20;99.90;;;;;;5093592;28;20489;-62
2023/07/23 06:38:30;;;;;;;;;;;24.50;99.90;;;;;;5093189;28;19987;-62
2023/07/23 06:40:56;;;;;;;;;;;24.60;99.90;;;;;;5093562;28;19985;-63
2023/07/23 06:43:21;;;;;;;;;;;24.80;99.90;;;;;;5093239;28;20424;-62
2023/07/23 06:45:48;;;;;;;;;;;24.80;99.90;;;;;;5092846;28;20070;-61
2023/07/23 06:48:14;;;;;;;;;;;24.90;99.90;;;;;;5094703;28;19981;-64
2023/07/23 06:50:39;;;;;;;;;;;24.90;99.90;;;;;;5096891;28;20015;-61
2023/07/23 06:53:05;;;;;;;;;;;25.00;99.90;;;;;;5097122;28;20071;-64
2023/07/23 06:55:31;;;;;;;;;;;25.00;99.90;;;;;;5096705;28;19981;-63
2023/07/23 06:57:56;;;;;;;;;;;25.10;99.90;;;;;;5096630;28;20083;-63
2023/07/23 07:00:22;;;;;;;;;;;25.10;99.90;;;;;;5096426;28;20138;-63
2023/07/23 07:02:48;;;;;;;;;;;25.20;99.90;;;;;;5096467;28;19985;-64
2023/07/23 07:05:13;;;;;;;;;;;25.30;99.90;;;;;;5096606;28;19981;-62
2023/07/23 07:07:39;;;;;;;;;;;25.50;99.90;;;;;;5096486;28;20072;-62
2023/07/23 07:10:05;;;;;;;;;;;25.80;99.90;;;;;;5096302;28;20045;-63
2023/07/23 07:12:30;;;;;;;;;;;25.90;99.90;;;;;;5096380;28;19988;-62
2023/07/23 07:14:56;;;;;;;;;;;26.00;99.90;;;;;;5096103;28;20511;-61
2023/07/23 07:17:21;;;;;;;;;;;26.00;99.90;;;;;;5096515;28;19992;-62
2023/07/23 07:19:47;;;;;;;;;;;26.30;99.90;;;;;;5096567;28;20447;-61
2023/07/23 07:22:12;;;;;;;;;;;26.40;99.90;;;;;;5096194;28;19981;-63
2023/07/23 07:24:38;;;;;;;;;;;26.30;99.90;;;;;;5096194;28;19985;-61
2023/07/23 07:27:09;;;;;;;;;;;26.40;99.90;;;;;;5096333;28;19985;-62
2023/07/23 07:29:38;;;;;;;;;;;26.80;99.90;;;;;;5095841;28;19982;-61
2023/07/23 07:32:04;;;;;;;;;;;27.10;99.90;;;;;;5095990;28;20420;-62
2023/07/23 07:34:30;;;;;;;;;;;27.50;99.90;;;;;;5095960;28;19989;-62
2023/07/23 07:36:56;;;;;;;;;;;29.50;98.80;;;;;;5095933;28;19988;-62
2023/07/23 07:39:21;;;;;;;;;;;31.00;88.10;;;;;;5095897;28;20094;-61
2023/07/23 07:41:47;;;;;;;;;;;30.70;85.70;;;;;;5095973;28;19989;-62
2023/07/23 07:44:12;;;;;;;;;;;30.50;80.60;;;;;;5095536;28;20087;-60
2023/07/23 07:46:38;;;;;;;;;;;30.20;86.00;;;;;;5095600;28;20024;-61
2023/07/23 07:49:05;;;;;;;;;;;31.60;83.20;;;;;;5095937;28;19985;-61
2023/07/23 07:51:30;;;;;;;;;;;33.10;75.60;;;;;;5095590;28;20008;-61
2023/07/23 07:53:56;;;;;;;;;;;34.20;67.80;;;;;;5095644;28;19982;-62
2023/07/23 07:56:21;;;;;;;;;;;35.00;65.50;;;;;;5095478;28;19988;-62
2023/07/23 07:58:47;;;;;;;;;;;35.50;60.70;;;;;;5094836;28;20087;-64
2023/07/23 08:01:13;;;;;;;;;;;35.70;62.90;;;;;;5094962;28;20393;-61
2023/07/23 08:03:39;;;;;;;;;;;36.00;60.60;;;;;;5095333;28;20488;-62
2023/07/23 08:06:04;;;;;;;;;;;36.60;58.40;;;;;;5095501;28;19992;-62
2023/07/23 08:08:34;;;;;;;;;;;36.90;55.20;;;;;;5095533;28;20340;-62
2023/07/23 08:11:02;;;;;;;;;;;37.00;53.80;;;;;;5095179;28;20050;-62
2023/07/23 08:13:28;;;;;;;;;;;36.90;54.40;;;;;;5095043;28;20010;-63
2023/07/23 08:15:54;;;;;;;;;;;36.90;53.00;;;;;;5095453;28;20024;-62
2023/07/23 08:18:20;;;;;;;;;;;36.70;56.00;;;;;;5095115;28;20461;-63
2023/07/23 08:20:46;;;;;;;;;;;36.70;53.40;;;;;;5095107;28;19981;-63
2023/07/23 08:23:12;;;;;;;;;;;36.50;53.50;;;;;;5095070;28;20070;-62
2023/07/23 08:25:38;;;;;;;;;;;36.20;53.20;;;;;;5095005;28;20072;-63
2023/07/23 08:28:04;;;;;;;;;;;36.10;54.70;;;;;;5094699;28;19981;-61
2023/07/23 08:30:30;;;;;;;;;;;35.90;53.90;;;;;;5095036;28;20009;-62
2023/07/23 08:33:00;;;;;;;;;;;35.70;54.00;;;;;;5094948;28;20493;-64
2023/07/23 08:35:26;;;;;;;;;;;35.40;54.40;;;;;;5094666;28;20481;-63
2023/07/23 08:37:52;;;;;;;;;;;35.00;56.40;;;;;;5094801;28;19985;-64
2023/07/23 08:40:19;;;;;;;;;;;34.90;55.40;;;;;;5094929;28;19985;-63
2023/07/23 08:42:54;;;;;;;;;;;34.90;54.40;;;;;;5094430;28;20382;-62
2023/07/23 08:45:35;;;;;;;;;;;34.80;54.10;;;;;;5094443;28;20024;-64
2023/07/23 08:48:12;;;;;;;;;;;34.70;54.30;;;;;;5094482;28;19985;-62
2023/07/23 08:50:39;;;;;;;;;;;34.60;55.20;;;;;;5094509;28;20382;-63
2023/07/23 08:53:05;;;;;;;;;;;34.70;54.20;;;;;;5094473;28;19981;-64
2023/07/23 08:55:31;;;;;;;;;;;34.60;55.70;;;;;;5095187;28;20355;-63
2023/07/23 08:57:56;;;;;;;;;;;34.50;55.60;;;;;;5094090;28;20005;-63
2023/07/23 09:00:27;;;;;;;;;;;34.70;55.70;;;;;;5094419;28;19981;-62
2023/07/23 09:02:53;;;;;;;;;;;35.50;56.60;;;;;;5094310;28;19985;-61
2023/07/23 09:05:18;;;;;;;;;;;36.20;57.70;;;;;;5094146;28;20060;-62
2023/07/23 09:07:44;;;;;;;;;;;36.80;55.10;;;;;;5094279;28;19982;-61
2023/07/23 09:10:09;;;;;;;;;;;36.80;54.70;;;;;;5093658;28;20016;-62
2023/07/23 09:12:40;;;;;;;;;;;37.10;52.90;;;;;;5094059;28;19988;-63
2023/07/23 09:15:05;;;;;;;;;;;37.40;52.30;;;;;;5094178;28;19981;-62
2023/07/23 09:17:31;;;;;;;;;;;37.50;50.80;;;;;;5094035;28;19981;-62
2023/07/23 09:19:56;;;;;;;;;;;37.60;51.70;;;;;;5094112;28;20527;-64
2023/07/23 09:22:22;;;;;;;;;;;37.60;51.00;;;;;;5094317;28;20351;-62
2023/07/23 09:24:48;;;;;;;;;;;37.50;50.20;;;;;;5093707;28;20378;-63
2023/07/23 09:27:13;;;;;;;;;;;37.80;50.00;;;;;;5094236;28;19985;-62
2023/07/23 09:29:43;;;;;;;;;;;38.30;47.50;;;;;;5094157;28;19985;-62
2023/07/23 09:32:21;;;;;;;;;;;37.70;48.10;;;;;;5094091;28;20396;-62
2023/07/23 09:34:46;;;;;;;;;;;37.50;48.50;;;;;;5093873;28;19985;-61
2023/07/23 09:37:12;;;;;;;;;;;37.00;48.40;;;;;;5093940;28;20027;-61
2023/07/23 09:39:38;;;;;;;;;;;37.00;50.40;;;;;;5093491;28;20465;-61
2023/07/23 09:42:04;;;;;;;;;;;36.60;48.60;;;;;;5093859;28;19981;-62
2023/07/23 09:44:29;;;;;;;;;;;36.00;48.30;;;;;;5093805;28;19993;-63
2023/07/23 09:46:57;;;;;;;;;;;34.80;48.70;;;;;;5093707;28;20374;-63
2023/07/23 09:49:24;;;;;;;;;;;34.40;50.80;;;;;;5093865;28;20458;-63
2023/07/23 09:51:50;;;;;;;;;;;34.30;49.10;;;;;;5093726;28;20011;-64
2023/07/23 09:54:16;;;;;;;;;;;34.20;51.30;;;;;;5093408;28;19989;-62
2023/07/23 09:56:42;;;;;;;;;;;33.90;49.40;;;;;;5093531;28;19985;-61
2023/07/23 09:59:09;;;;;;;;;;;33.80;50.40;;;;;;5093608;28;19985;-62
2023/07/23 10:01:35;;;;;;;;;;;33.80;49.60;;;;;;5093851;28;20419;-62
2023/07/23 10:04:01;;;;;;;;;;;33.70;49.30;;;;;;5093636;28;20017;-61
2023/07/23 10:06:27;;;;;;;;;;;33.70;51.40;;;;;;5093880;28;20017;-61
2023/07/23 10:08:53;;;;;;;;;;;34.30;49.60;;;;;;5093286;28;20033;-63
2023/07/23 10:11:19;;;;;;;;;;;34.90;48.40;;;;;;5093702;28;20470;-62
2023/07/23 10:13:47;;;;;;;;;;;35.40;51.10;;;;;;5093500;28;20443;-63
2023/07/23 10:16:27;;;;;;;;;;;35.70;48.60;;;;;;5093512;28;20033;-62
2023/07/23 10:18:54;;;;;;;;;;;35.90;47.20;;;;;;5093426;28;19981;-62
2023/07/23 10:21:20;;;;;;;;;;;35.70;47.50;;;;;;5093682;28;20038;-63
2023/07/23 10:23:51;;;;;;;;;;;35.70;46.40;;;;;;5095582;28;20428;-62
2023/07/23 10:26:19;;;;;;;;;;;36.10;46.70;;;;;;5097307;28;19996;-62
2023/07/23 10:28:45;;;;;;;;;;;36.40;48.80;;;;;;5097373;28;20035;-61
2023/07/23 10:31:27;;;;;;;;;;;36.70;48.50;;;;;;5097338;28;20097;-64
2023/07/23 10:33:53;;;;;;;;;;;36.70;49.40;;;;;;5097297;28;19988;-62
2023/07/23 10:36:19;;;;;;;;;;;36.30;46.50;;;;;;5097046;28;19995;-63
2023/07/23 10:38:46;;;;;;;;;;;35.90;45.80;;;;;;5096857;28;20011;-62
2023/07/23 10:41:12;;;;;;;;;;;35.70;46.90;;;;;;5097043;28;19986;-62
2023/07/23 10:43:38;;;;;;;;;;;35.50;47.50;;;;;;5096916;28;19985;-63
2023/07/23 10:46:05;;;;;;;;;;;36.20;48.70;;;;;;5096785;28;20506;-62
2023/07/23 10:48:57;;;;;;;;;;;36.20;44.90;;;;;;5097173;28;20034;-61
2023/07/23 10:51:23;;;;;;;;;;;35.90;46.20;;;;;;5094752;28;20157;-63
2023/07/23 10:54:02;;;;;;;;;;;35.70;48.10;;;;;;5096946;28;19992;-62
2023/07/23 10:56:28;;;;;;;;;;;36.00;46.80;;;;;;5096935;28;20036;-65
2023/07/23 10:58:55;;;;;;;;;;;36.20;44.60;;;;;;5096889;28;20070;-62
2023/07/23 11:01:25;;;;;;;;;;;36.20;45.40;;;;;;5096869;28;20351;-64
2023/07/23 11:03:57;;;;;;;;;;;36.60;45.90;;;;;;5096544;28;19988;-64
2023/07/23 11:06:26;;;;;;;;;;;36.90;44.40;;;;;;5096386;28;19989;-61
2023/07/23 11:08:52;;;;;;;;;;;37.10;45.80;;;;;;5096425;28;20436;-62
2023/07/23 11:11:20;;;;;;;;;;;37.10;44.60;;;;;;5096331;28;20066;-61
2023/07/23 11:13:46;;;;;;;;;;;37.30;46.80;;;;;;5096416;28;20381;-63
2023/07/23 11:16:11;;;;;;;;;;;37.50;45.10;;;;;;5096342;28;20026;-62
2023/07/23 11:18:37;;;;;;;;;;;37.50;44.00;;;;;;5096310;28;19989;-61
2023/07/23 11:21:04;;;;;;;;;;;37.50;45.20;;;;;;5096337;28;19985;-61
2023/07/23 11:23:30;;;;;;;;;;;37.70;44.70;;;;;;5096343;28;19988;-64
2023/07/23 11:25:56;;;;;;;;;;;38.00;46.00;;;;;;5096076;28;19981;-62
2023/07/23 11:28:22;;;;;;;;;;;38.10;44.20;;;;;;5096410;28;19985;-63
2023/07/23 11:30:49;;;;;;;;;;;38.20;48.20;;;;;;5096305;28;20009;-63
2023/07/23 11:33:16;;;;;;;;;;;38.30;46.10;;;;;;5095842;28;19981;-63
2023/07/23 11:35:42;;;;;;;;;;;38.50;43.20;;;;;;5095760;28;20030;-62
2023/07/23 11:38:08;;;;;;;;;;;38.50;48.50;;;;;;5096236;28;19989;-61
2023/07/23 11:40:34;;;;;;;;;;;38.50;43.60;;;;;;5095857;28;20035;-63
2023/07/23 11:43:03;;;;;;;;;;;38.50;43.40;;;;;;5095978;28;20021;-62
2023/07/23 11:45:29;;;;;;;;;;;38.40;43.10;;;;;;5095826;28;20107;-64
2023/07/23 11:47:55;;;;;;;;;;;38.60;42.80;;;;;;5094417;28;20043;-64
2023/07/23 11:50:21;;;;;;;;;;;38.50;46.40;;;;;;5095423;28;20005;-64
2023/07/23 11:52:47;;;;;;;;;;;38.20;42.60;;;;;;5095702;28;19982;-62
2023/07/23 11:55:19;;;;;;;;;;;38.00;44.80;;;;;;5095544;28;19987;-63
2023/07/23 11:57:45;;;;;;;;;;;38.20;45.60;;;;;;5095521;28;19997;-62
2023/07/23 12:00:11;;;;;;;;;;;38.40;44.20;;;;;;5095565;28;19985;-61
2023/07/23 12:02:36;;;;;;;;;;;38.30;42.90;;;;;;5095346;28;20007;-63
2023/07/23 12:05:02;;;;;;;;;;;38.10;44.80;;;;;;5095267;28;19981;-62
2023/07/23 12:07:28;;;;;;;;;;;38.30;44.00;;;;;;5095807;28;20340;-63
2023/07/23 12:09:54;;;;;;;;;;;38.50;43.10;;;;;;5095160;28;19986;-63
2023/07/23 12:12:21;;;;;;;;;;;38.60;43.90;;;;;;5095550;28;19989;-64
2023/07/23 12:14:59;;;;;;;;;;;38.70;43.90;;;;;;5095552;28;20358;-64
2023/07/23 12:17:26;;;;;;;;;;;38.60;41.20;;;;;;5095179;28;20333;-62
2023/07/23 12:19:51;;;;;;;;;;;38.30;45.00;;;;;;5094912;28;19981;-64
2023/07/23 12:22:17;;;;;;;;;;;38.60;45.40;;;;;;5095116;28;20042;-61
2023/07/23 12:24:42;;;;;;;;;;;38.80;44.00;;;;;;5095019;28;19985;-62
2023/07/23 12:27:08;;;;;;;;;;;39.10;43.40;;;;;;5095125;28;20072;-61
2023/07/23 12:29:39;;;;;;;;;;;39.00;43.50;;;;;;5095276;28;20010;-62
2023/07/23 12:32:15;;;;;;;;;;;38.90;47.30;;;;;;5094820;28;19992;-63
2023/07/23 12:34:41;;;;;;;;;;;38.90;43.40;;;;;;5094725;28;20446;-64
2023/07/23 12:37:07;;;;;;;;;;;38.80;46.40;;;;;;5094827;28;20007;-63
2023/07/23 12:39:33;;;;;;;;;;;38.90;44.10;;;;;;5094638;28;19985;-61
2023/07/23 12:41:59;;;;;;;;;;;39.00;43.40;;;;;;5094952;28;19992;-61
2023/07/23 12:44:25;;;;;;;;;;;39.20;45.30;;;;;;5094846;28;19986;-62
2023/07/23 12:46:50;;;;;;;;;;;39.30;42.30;;;;;;5093803;28;20044;-62
2023/07/23 12:49:16;;;;;;;;;;;39.40;44.80;;;;;;5094637;28;20423;-63
2023/07/23 12:51:41;;;;;;;;;;;39.20;44.30;;;;;;5094484;28;20088;-62
2023/07/23 12:54:07;;;;;;;;;;;38.70;43.60;;;;;;5094393;28;19989;-63
2023/07/23 12:56:33;;;;;;;;;;;38.40;42.20;;;;;;5094474;28;20004;-62
2023/07/23 12:58:59;;;;;;;;;;;38.20;43.00;;;;;;5094302;28;20001;-61
2023/07/23 13:01:24;;;;;;;;;;;38.10;48.40;;;;;;5094454;28;19981;-62
2023/07/23 13:03:50;;;;;;;;;;;38.40;46.70;;;;;;5094034;28;19995;-61
2023/07/23 13:06:16;;;;;;;;;;;38.60;43.30;;;;;;5094323;28;19988;-61
2023/07/23 13:08:41;;;;;;;;;;;38.50;44.60;;;;;;5094381;28;19981;-63
2023/07/23 13:11:07;;;;;;;;;;;38.60;43.30;;;;;;5094058;28;20398;-62
2023/07/23 13:13:33;;;;;;;;;;;38.70;44.70;;;;;;5094271;28;20007;-62
2023/07/23 13:15:59;;;;;;;;;;;38.90;41.30;;;;;;5094138;28;19985;-63
2023/07/23 13:18:24;;;;;;;;;;;38.90;43.50;;;;;;5093797;28;19988;-63
2023/07/23 13:20:50;;;;;;;;;;;38.70;42.90;;;;;;5094012;28;20431;-63
2023/07/23 13:23:15;;;;;;;;;;;38.50;44.60;;;;;;5094051;28;19992;-63
2023/07/23 13:25:42;;;;;;;;;;;38.50;42.70;;;;;;5093875;28;19985;-62
2023/07/23 13:28:07;;;;;;;;;;;38.30;43.70;;;;;;5094299;28;19985;-61
2023/07/23 13:30:33;;;;;;;;;;;38.10;40.30;;;;;;5093909;28;20386;-61
2023/07/23 13:32:58;;;;;;;;;;;38.10;43.90;;;;;;5093702;28;19981;-62
2023/07/23 13:35:26;;;;;;;;;;;38.30;40.80;;;;;;5093843;28;19986;-64
2023/07/23 13:37:52;;;;;;;;;;;38.40;42.20;;;;;;5093850;28;19985;-64
2023/07/23 13:40:17;;;;;;;;;;;38.50;43.00;;;;;;5093927;28;20090;-62
2023/07/23 13:42:43;;;;;;;;;;;38.80;42.70;;;;;;5093750;28;20076;-61
2023/07/23 13:45:09;;;;;;;;;;;39.10;43.00;;;;;;5093666;28;20554;-63
2023/07/23 13:47:34;;;;;;;;;;;39.20;41.80;;;;;;5093858;28;19991;-63
2023/07/23 13:50:00;;;;;;;;;;;39.40;41.20;;;;;;5093584;28;20008;-64
2023/07/23 13:52:26;;;;;;;;;;;39.50;41.00;;;;;;5093725;28;19981;-62
2023/07/23 13:54:52;;;;;;;;;;;39.50;39.80;;;;;;5093944;28;20075;-63
2023/07/23 13:57:17;;;;;;;;;;;39.40;38.80;;;;;;5093815;28;20043;-63
2023/07/23 13:59:43;;;;;;;;;;;39.30;42.90;;;;;;5097804;28;19992;-61
2023/07/23 14:02:08;;;;;;;;;;;39.40;42.50;;;;;;5097849;28;19989;-61
2023/07/23 14:04:34;;;;;;;;;;;39.50;38.60;;;;;;5097897;28;19981;-62
2023/07/23 14:06:59;;;;;;;;;;;39.60;40.50;;;;;;5097943;28;19992;-62
2023/07/23 14:09:25;;;;;;;;;;;39.70;40.90;;;;;;5097722;28;20478;-62